Terminal Aerodrome Forecast
Issued by NWS

Home | Current Version | Previous Version | Text Only | Print | Product List | Glossary On
Versions: 1 2 3 4 5 6 7 8 9 10 11 12 13 14 15 16 17 18 19 20 21 22 23 24 25
000
FTUS46 KMFR 301733
TAFOTH
TAF
KOTH 301733Z 3018/3118 36004KT P6SM SKC
     FM302100 35010KT P6SM SKC
     FM310300 06004KT P6SM SKC
     FM311200 10003KT 4SM BR SCT007=

USA.gov is the U.S. government's official web portal to all federal, state and local government web resources and services.